Time;durP1;ratioP1;P1;durP2;ratioP2;P2;SDS_P1;SDS_P2;PMS_P1;PMS_P2;Temp;Humidity;BMP_temperature;BMP_pressure;BME280_temperature;BME280_humidity;BME280_pressure;Samples;Min_cycle;Max_cycle;Signal;HPM_P1;HPM_P2
2023/03/07 00:01:41;;;;;;;23.90;16.50;;;;;;;-0.86;100.00;98649.16;107702;1276;23145;-68
2023/03/07 00:04:09;;;;;;;24.60;17.40;;;;;;;-0.82;100.00;98644.44;108353;1270;22520;-68
2023/03/07 00:06:39;;;;;;;24.90;16.90;;;;;;;-0.77;100.00;98642.11;107981;1275;26745;-68
2023/03/07 00:09:08;;;;;;;24.00;16.60;;;;;;;-0.75;100.00;98640.56;107571;1274;25044;-68
2023/03/07 00:11:40;;;;;;;23.50;16.20;;;;;;;-0.78;100.00;98635.88;107593;1275;25372;-68
2023/03/07 00:14:09;;;;;;;23.50;16.60;;;;;;;-0.81;100.00;98634.97;110313;1274;23270;-69
2023/03/07 00:16:37;;;;;;;25.90;16.90;;;;;;;-0.78;100.00;98633.73;110376;1273;22408;-69
2023/03/07 00:19:06;;;;;;;25.40;16.40;;;;;;;-0.73;100.00;98637.24;110367;1276;22262;-69
2023/03/07 00:21:35;;;;;;;25.90;16.80;;;;;;;-0.69;100.00;98634.36;110409;1276;22254;-69
2023/03/07 00:24:04;;;;;;;24.10;16.20;;;;;;;-0.70;100.00;98631.86;110355;1269;22278;-69
2023/03/07 00:26:38;;;;;;;26.10;16.60;;;;;;;-0.73;100.00;98625.98;110374;1276;22541;-68
2023/03/07 00:29:07;;;;;;;28.50;16.70;;;;;;;-0.69;100.00;98625.11;110389;1276;22216;-69
2023/03/07 00:31:55;;;;;;;27.70;17.30;;;;;;;-0.65;100.00;98620.20;110382;1276;22813;-69
2023/03/07 00:34:24;;;;;;;23.00;16.10;;;;;;;-0.63;100.00;98619.02;110179;1276;22344;-69
2023/03/07 00:36:52;;;;;;;23.30;15.70;;;;;;;-0.65;100.00;98619.79;110059;1276;22263;-69
2023/03/07 00:39:20;;;;;;;24.50;16.20;;;;;;;-0.68;100.00;98611.62;110370;1276;23184;-69
2023/03/07 00:41:48;;;;;;;24.50;16.50;;;;;;;-0.70;100.00;98609.73;110401;1276;22393;-68
2023/03/07 00:44:17;;;;;;;23.40;15.70;;;;;;;-0.68;100.00;98603.06;110395;1276;22278;-69
2023/03/07 00:46:45;;;;;;;22.90;15.80;;;;;;;-0.66;100.00;98604.13;110411;1276;22999;-68
2023/03/07 00:49:13;;;;;;;24.50;16.40;;;;;;;-0.68;100.00;98598.04;110341;1275;22389;-69
2023/03/07 00:51:42;;;;;;;22.90;16.20;;;;;;;-0.72;100.00;98598.64;110250;1276;22997;-69
2023/03/07 00:54:11;;;;;;;24.40;16.60;;;;;;;-0.77;100.00;98595.77;110206;1272;22254;-69
2023/03/07 00:56:39;;;;;;;24.50;15.90;;;;;;;-0.73;100.00;98594.49;110400;1276;22812;-69
2023/03/07 00:59:07;;;;;;;23.30;16.00;;;;;;;-0.68;100.00;98590.06;110389;1276;22208;-68
2023/03/07 01:01:36;;;;;;;23.60;15.60;;;;;;;-0.65;100.00;98589.56;110270;1276;22405;-68
2023/03/07 01:04:05;;;;;;;22.00;15.70;;;;;;;-0.67;100.00;98591.23;110219;1277;22263;-69
2023/03/07 01:06:34;;;;;;;24.30;16.50;;;;;;;-0.70;100.00;98582.80;110293;1276;22986;-69
2023/03/07 01:09:06;;;;;;;23.80;15.80;;;;;;;-0.71;100.00;98576.78;110347;1275;23061;-69
2023/03/07 01:11:35;;;;;;;22.30;16.40;;;;;;;-0.66;100.00;98572.02;110293;1275;22303;-69
2023/03/07 01:14:05;;;;;;;22.70;15.60;;;;;;;-0.62;100.00;98569.55;110302;1276;22384;-68
2023/03/07 01:16:36;;;;;;;24.90;16.10;;;;;;;-0.59;100.00;98563.11;110251;1276;22222;-69
2023/03/07 01:19:06;;;;;;;23.50;16.00;;;;;;;-0.62;100.00;98560.20;110281;1275;22521;-69
2023/03/07 01:21:36;;;;;;;24.80;16.80;;;;;;;-0.67;100.00;98553.12;110363;1276;22302;-68
2023/03/07 01:24:05;;;;;;;22.60;16.30;;;;;;;-0.71;100.00;98554.66;110271;1276;22275;-69
2023/03/07 01:26:34;;;;;;;25.90;17.00;;;;;;;-0.69;100.00;98551.29;110397;1276;22213;-68
2023/03/07 01:29:03;;;;;;;23.30;16.60;;;;;;;-0.66;100.00;98544.96;110216;1275;22185;-66
2023/03/07 01:31:34;;;;;;;22.20;15.80;;;;;;;-0.61;100.00;98547.29;110360;1276;23493;-66
2023/03/07 01:34:03;;;;;;;21.60;15.40;;;;;;;-0.65;100.00;98541.91;110407;1276;22268;-66
2023/03/07 01:36:34;;;;;;;25.20;16.80;;;;;;;-0.68;100.00;98540.27;110240;1276;22456;-67
2023/03/07 01:39:13;;;;;;;26.20;16.90;;;;;;;-0.70;100.00;98542.02;110135;1270;23369;-67
2023/03/07 01:42:11;;;;;;;25.60;17.40;;;;;;;-0.66;100.00;98534.48;110256;1276;22371;-67
2023/03/07 01:44:58;;;;;;;23.10;15.50;;;;;;;-0.62;100.00;98533.15;108068;1269;22529;-67
2023/03/07 01:47:31;;;;;;;23.20;15.40;;;;;;;-0.60;100.00;98531.70;107598;1276;25366;-67
2023/03/07 01:50:01;;;;;;;23.00;15.70;;;;;;;-0.64;100.00;98528.96;107247;1270;22472;-68
2023/03/07 01:52:37;;;;;;;22.70;16.00;;;;;;;-0.69;100.00;98528.37;108720;1272;22529;-67
2023/03/07 01:55:11;;;;;;;23.10;15.30;;;;;;;-0.72;100.00;98525.29;107484;1276;25263;-67
2023/03/07 01:57:43;;;;;;;26.30;17.50;;;;;;;-0.70;100.00;98524.02;107456;1275;25313;-67
2023/03/07 02:00:17;;;;;;;27.90;16.10;;;;;;;-0.66;100.00;98517.55;107668;1272;24588;-67
2023/03/07 02:02:46;;;;;;;22.40;15.50;;;;;;;-0.63;100.00;98514.66;108334;1276;22529;-67
2023/03/07 02:05:25;;;;;;;22.60;15.60;;;;;;;-0.67;100.00;98516.08;107387;1276;23226;-67
2023/03/07 02:07:54;;;;;;;21.60;15.80;;;;;;;-0.72;100.00;98510.83;107439;1276;22763;-67
2023/03/07 02:10:24;;;;;;;27.10;16.80;;;;;;;-0.76;100.00;98504.34;107371;1271;22673;-67
2023/03/07 02:12:54;;;;;;;24.90;16.40;;;;;;;-0.73;100.00;98502.45;107432;1275;22507;-67
2023/03/07 02:15:28;;;;;;;23.00;15.50;;;;;;;-0.68;100.00;98500.80;107467;1276;25272;-67
2023/03/07 02:17:57;;;;;;;25.30;15.90;;;;;;;-0.65;100.00;98499.61;107291;1276;25318;-67
2023/03/07 02:20:46;;;;;;;23.90;15.30;;;;;;;-0.67;100.00;98495.55;107325;1273;23158;-68
2023/03/07 02:23:42;;;;;;;27.20;16.30;;;;;;;-0.69;100.00;98495.23;107377;1273;25424;-67
2023/03/07 02:26:15;;;;;;;24.80;16.30;;;;;;;-0.69;100.00;98490.73;107408;1276;23227;-67
2023/03/07 02:28:44;;;;;;;25.90;15.80;;;;;;;-0.63;100.00;98489.04;107326;1272;24219;-67
2023/03/07 02:31:12;;;;;;;26.50;15.40;;;;;;;-0.55;100.00;98487.72;107376;1276;25315;-67
2023/03/07 02:33:42;;;;;;;24.70;15.20;;;;;;;-0.50;100.00;98483.73;107325;1276;25338;-68
2023/03/07 02:36:16;;;;;;;24.20;15.30;;;;;;;-0.49;100.00;98479.51;107510;1276;22516;-67
2023/03/07 02:38:51;;;;;;;30.00;16.50;;;;;;;-0.51;100.00;98473.66;107472;1270;25385;-67
2023/03/07 02:41:26;;;;;;;29.70;16.60;;;;;;;-0.52;100.00;98477.16;107481;1272;25522;-68
2023/03/07 02:43:56;;;;;;;24.10;14.80;;;;;;;-0.44;100.00;98474.35;109604;1272;26274;-68
2023/03/07 02:46:24;;;;;;;27.40;16.30;;;;;;;-0.37;100.00;98468.34;107631;1269;22519;-67
2023/03/07 02:48:53;;;;;;;22.60;15.00;;;;;;;-0.31;100.00;98468.89;107506;1275;23755;-67
2023/03/07 02:51:22;;;;;;;23.20;15.60;;;;;;;-0.32;100.00;98462.27;107672;1270;22183;-68
2023/03/07 02:53:51;;;;;;;24.70;16.90;;;;;;;-0.36;100.00;98455.92;107445;1276;24201;-67
2023/03/07 02:56:19;;;;;;;26.40;17.00;;;;;;;-0.39;100.00;98461.73;107360;1272;22554;-67
2023/03/07 02:58:47;;;;;;;25.50;16.40;;;;;;;-0.36;100.00;98461.27;107602;1275;25362;-68
2023/03/07 03:01:16;;;;;;;24.60;14.80;;;;;;;-0.31;100.00;98463.90;107497;1276;22572;-69
2023/03/07 03:03:45;;;;;;;26.70;15.50;;;;;;;-0.29;100.00;98467.42;107730;1276;23328;-68
2023/03/07 03:06:14;;;;;;;23.00;14.50;;;;;;;-0.31;100.00;98468.80;107347;1270;22642;-67
2023/03/07 03:08:43;;;;;;;22.90;15.10;;;;;;;-0.33;100.00;98468.67;107423;1272;25373;-67
2023/03/07 03:11:11;;;;;;;24.20;14.50;;;;;;;-0.31;100.00;98459.46;107506;1276;22689;-67
2023/03/07 03:13:40;;;;;;;24.40;14.40;;;;;;;-0.25;100.00;98455.70;107578;1276;22529;-68
2023/03/07 03:16:08;;;;;;;20.50;14.00;;;;;;;-0.21;100.00;98458.62;107323;1270;26647;-67
2023/03/07 03:18:37;;;;;;;21.20;14.20;;;;;;;-0.22;100.00;98456.73;107546;1274;23394;-67
2023/03/07 03:21:09;;;;;;;22.60;14.60;;;;;;;-0.23;100.00;98457.44;110328;1276;22912;-68
2023/03/07 03:23:39;;;;;;;25.10;14.40;;;;;;;-0.24;100.00;98456.90;110193;1276;22347;-68
2023/03/07 03:26:10;;;;;;;23.00;14.20;;;;;;;-0.23;100.00;98456.52;110264;1275;22276;-68
2023/03/07 03:28:38;;;;;;;22.80;13.90;;;;;;;-0.16;100.00;98454.17;110289;1276;22393;-68
2023/03/07 03:31:09;;;;;;;21.40;12.70;;;;;;;-0.08;100.00;98447.03;110231;1276;22329;-67
2023/03/07 03:33:40;;;;;;;22.00;12.20;;;;;;;-0.02;100.00;98445.47;110367;1276;22393;-68
2023/03/07 03:36:13;;;;;;;20.70;12.70;;;;;;;-0.01;100.00;98443.56;110183;1270;22512;-67
2023/03/07 03:38:42;;;;;;;19.00;11.10;;;;;;;-0.01;100.00;98442.75;110049;1276;22215;-68
2023/03/07 03:41:12;;;;;;;18.10;12.00;;;;;;;-0.01;100.00;98441.58;110368;1276;22422;-68
2023/03/07 03:43:40;;;;;;;22.20;12.10;;;;;;;0.08;100.00;98440.84;110344;1276;22940;-68
2023/03/07 03:46:09;;;;;;;19.10;12.50;;;;;;;0.16;100.00;98439.33;110224;1271;22990;-68
2023/03/07 03:48:37;;;;;;;18.70;11.50;;;;;;;0.19;100.00;98440.08;110357;1275;22354;-67
2023/03/07 03:51:13;;;;;;;19.60;12.40;;;;;;;0.20;100.00;98442.61;110374;1275;22412;-68
2023/03/07 03:56:41;;;;;;;17.40;11.30;;;;;;;0.28;100.00;98435.06;106533;1302;545908;-68
2023/03/07 03:59:10;;;;;;;18.80;11.70;;;;;;;0.33;100.00;98434.73;109463;1289;23042;-68
2023/03/07 04:01:38;;;;;;;18.60;11.30;;;;;;;0.43;100.00;98432.90;109457;1290;22319;-68
2023/03/07 04:04:06;;;;;;;16.10;11.40;;;;;;;0.50;100.00;98434.73;109296;1283;22312;-68
2023/03/07 04:06:35;;;;;;;18.30;11.30;;;;;;;0.50;100.00;98429.65;109434;1289;22335;-68
2023/03/07 04:09:14;;;;;;;19.50;12.20;;;;;;;0.52;100.00;98425.23;109421;1287;159358;-68
2023/03/07 04:11:46;;;;;;;20.50;11.90;;;;;;;0.51;100.00;98425.91;109497;1286;22275;-68
2023/03/07 04:14:14;;;;;;;17.10;11.30;;;;;;;0.50;100.00;98424.56;109622;1287;22441;-68
2023/03/07 04:16:43;;;;;;;18.90;11.40;;;;;;;0.56;100.00;98420.77;109816;1284;22198;-68
2023/03/07 04:19:11;;;;;;;16.10;10.80;;;;;;;0.60;100.00;98419.04;108674;1284;23874;-67
2023/03/07 04:21:42;;;;;;;17.50;10.60;;;;;;;0.60;100.00;98424.48;107424;1284;26254;-67
2023/03/07 04:24:12;;;;;;;20.50;11.20;;;;;;;0.58;100.00;98424.39;106784;1284;25369;-67
2023/03/07 04:26:41;;;;;;;20.20;10.60;;;;;;;0.56;100.00;98421.85;107529;1272;26519;-67
2023/03/07 04:29:10;;;;;;;18.30;11.40;;;;;;;0.56;100.00;98419.95;107632;1276;24373;-67
2023/03/07 04:31:43;;;;;;;18.90;10.90;;;;;;;0.59;100.00;98408.84;107461;1277;23024;-67
2023/03/07 04:34:12;;;;;;;19.20;10.30;;;;;;;0.62;100.00;98402.14;107844;1276;22521;-67
2023/03/07 04:36:41;;;;;;;17.50;10.70;;;;;;;0.61;100.00;98408.22;107341;1276;23129;-67
2023/03/07 04:39:12;;;;;;;14.40;9.70;;;;;;;0.56;100.00;98416.16;107449;1270;23280;-67
2023/03/07 04:41:42;;;;;;;20.00;11.00;;;;;;;0.53;100.00;98411.55;107551;1276;22699;-67
2023/03/07 04:44:23;;;;;;;17.70;10.80;;;;;;;0.52;100.00;98400.92;107433;1275;25316;-67
2023/03/07 04:46:51;;;;;;;15.80;10.70;;;;;;;0.57;100.00;98400.92;107629;1271;25268;-67
2023/03/07 04:49:19;;;;;;;15.80;10.60;;;;;;;0.62;100.00;98401.23;107516;1273;22633;-67
2023/03/07 04:51:48;;;;;;;18.00;10.40;;;;;;;0.62;100.00;98406.63;107526;1276;24370;-67
2023/03/07 04:54:20;;;;;;;20.10;10.60;;;;;;;0.60;100.00;98409.23;107885;1275;23037;-67
2023/03/07 04:56:50;;;;;;;17.90;11.40;;;;;;;0.59;100.00;98411.14;107449;1275;22594;-69
2023/03/07 04:59:18;;;;;;;17.50;11.20;;;;;;;0.61;100.00;98402.70;110240;1276;22423;-67
2023/03/07 05:01:49;;;;;;;18.40;10.20;;;;;;;0.71;100.00;98402.08;110181;1277;22235;-68
2023/03/07 05:04:18;;;;;;;16.80;10.30;;;;;;;0.80;100.00;98406.63;110409;1276;22481;-68
2023/03/07 05:06:47;;;;;;;16.70;10.10;;;;;;;0.84;100.00;98404.56;110139;1276;22415;-68
2023/03/07 05:09:16;;;;;;;17.80;10.00;;;;;;;0.85;100.00;98406.67;110372;1276;22570;-69
2023/03/07 05:11:45;;;;;;;16.80;11.40;;;;;;;0.88;100.00;98412.83;110121;1277;22942;-68
2023/03/07 05:14:13;;;;;;;16.20;10.60;;;;;;;0.92;100.00;98412.27;110177;1276;22213;-68
2023/03/07 05:16:42;;;;;;;15.90;9.50;;;;;;;1.00;100.00;98411.98;108285;1273;22539;-67
2023/03/07 05:19:12;;;;;;;16.90;10.50;;;;;;;1.08;100.00;98411.51;107426;1278;22731;-68
2023/03/07 05:22:01;;;;;;;17.40;10.20;;;;;;;1.08;100.00;98406.85;108238;1276;24284;-67
2023/03/07 05:24:37;;;;;;;;;;;;;;;1.04;100.00;98414.06;107497;1276;23203;-67
2023/03/07 05:27:07;;;;;;;14.40;9.40;;;;;;;1.01;100.00;98416.44;107578;1276;25510;-67
2023/03/07 05:29:35;;;;;;;16.10;10.20;;;;;;;0.99;100.00;98413.62;107340;1276;24393;-68
2023/03/07 05:32:03;;;;;;;16.60;10.30;;;;;;;0.89;100.00;98420.84;107300;1276;24187;-68
2023/03/07 05:34:32;;;;;;;18.30;10.40;;;;;;;0.76;100.00;98425.27;107437;1276;25474;-67
2023/03/07 05:37:01;;;;;;;15.80;10.70;;;;;;;0.70;100.00;98427.64;107561;1274;23107;-67
2023/03/07 05:39:30;;;;;;;16.20;10.50;;;;;;;0.64;100.00;98431.63;107472;1270;22606;-69
2023/03/07 05:41:58;;;;;;;16.70;10.80;;;;;;;0.51;100.00;98432.88;107327;1276;22531;-68
2023/03/07 05:44:28;;;;;;;17.10;11.20;;;;;;;0.42;100.00;98434.75;108345;1276;23185;-68
2023/03/07 05:46:57;;;;;;;20.00;11.10;;;;;;;0.40;100.00;98433.80;107412;1272;22621;-68
2023/03/07 05:49:26;;;;;;;18.60;11.40;;;;;;;0.40;100.00;98436.52;107379;1276;25365;-68
2023/03/07 05:51:54;;;;;;;15.80;10.30;;;;;;;0.35;100.00;98441.14;107614;1276;22520;-68
2023/03/07 05:54:22;;;;;;;18.70;11.60;;;;;;;0.27;100.00;98437.11;107440;1276;22524;-68
2023/03/07 05:56:53;;;;;;;16.30;10.50;;;;;;;0.26;100.00;98440.91;107368;1276;25485;-68
2023/03/07 05:59:22;;;;;;;16.10;11.20;;;;;;;0.30;100.00;98445.16;107433;1276;25337;-69
2023/03/07 06:01:52;;;;;;;17.00;11.10;;;;;;;0.27;100.00;98445.96;107795;1270;22525;-69
2023/03/07 06:04:20;;;;;;;18.70;11.90;;;;;;;0.24;100.00;98447.34;107335;1276;22524;-67
2023/03/07 06:06:48;;;;;;;17.60;11.40;;;;;;;0.27;100.00;98452.15;110131;1276;22912;-70
2023/03/07 06:09:17;;;;;;;17.70;11.40;;;;;;;0.26;100.00;98449.52;110290;1272;22968;-70
2023/03/07 06:11:46;;;;;;;18.10;11.60;;;;;;;0.27;100.00;98454.63;110006;1270;22481;-69
2023/03/07 06:14:20;;;;;;;17.80;11.90;;;;;;;0.25;100.00;98459.03;110407;1276;22187;-70
2023/03/07 06:16:49;;;;;;;17.50;11.90;;;;;;;0.23;100.00;98459.94;110219;1270;22209;-69
2023/03/07 06:19:18;;;;;;;17.00;10.60;;;;;;;0.26;100.00;98461.56;110118;1274;22712;-69
2023/03/07 06:21:48;;;;;;;16.50;11.10;;;;;;;0.27;100.00;98461.33;110229;1270;22264;-69
2023/03/07 06:24:16;;;;;;;17.20;11.10;;;;;;;0.29;100.00;98456.87;110243;1276;22469;-69
2023/03/07 06:26:44;;;;;;;18.10;12.10;;;;;;;0.31;100.00;98455.41;110206;1271;22325;-69
2023/03/07 06:29:13;;;;;;;17.50;11.80;;;;;;;0.28;100.00;98452.02;110159;1276;22398;-70
2023/03/07 06:31:42;;;;;;;18.10;11.60;;;;;;;0.32;100.00;98454.63;110395;1276;23429;-70
2023/03/07 06:34:11;;;;;;;15.70;11.00;;;;;;;0.39;100.00;98451.98;110363;1276;22304;-70
2023/03/07 06:36:39;;;;;;;14.80;10.80;;;;;;;0.46;100.00;98455.50;110373;1270;22231;-71
2023/03/07 06:39:08;;;;;;;16.70;10.30;;;;;;;0.51;100.00;98453.52;110274;1275;22242;-71
2023/03/07 06:41:37;;;;;;;18.60;11.80;;;;;;;0.49;100.00;98452.56;110218;1276;22237;-71
2023/03/07 06:44:06;;;;;;;17.40;11.90;;;;;;;0.49;100.00;98450.73;110181;1277;22227;-71
2023/03/07 06:46:37;;;;;;;17.80;12.80;;;;;;;0.55;100.00;98454.91;110311;1276;22201;-70
2023/03/07 06:49:10;;;;;;;18.20;11.50;;;;;;;0.60;100.00;98451.42;110219;1272;23076;-71
2023/03/07 06:51:40;;;;;;;17.80;11.70;;;;;;;0.62;100.00;98449.64;110189;1273;22382;-70
2023/03/07 06:54:09;;;;;;;19.10;13.70;;;;;;;0.64;100.00;98448.23;110234;1276;23117;-70
2023/03/07 06:56:39;;;;;;;20.40;12.50;;;;;;;0.62;100.00;98450.38;108392;1276;22519;-70
2023/03/07 06:59:08;;;;;;;18.40;12.60;;;;;;;0.65;100.00;98449.59;107300;1276;25287;-70
2023/03/07 07:01:36;;;;;;;17.30;12.20;;;;;;;0.69;100.00;98444.42;107474;1276;24027;-70
2023/03/07 07:04:05;;;;;;;14.70;11.00;;;;;;;0.72;100.00;98446.61;107393;1276;26246;-70
2023/03/07 07:06:36;;;;;;;17.20;12.10;;;;;;;0.67;100.00;98445.63;107358;1276;27568;-70
2023/03/07 07:09:06;;;;;;;15.80;11.30;;;;;;;0.68;100.00;98446.66;107481;1275;25303;-70
2023/03/07 07:11:37;;;;;;;16.30;10.40;;;;;;;0.70;100.00;98449.64;107651;1270;25328;-69
2023/03/07 07:14:10;;;;;;;14.50;10.90;;;;;;;0.72;100.00;98452.88;107541;1276;22564;-70
2023/03/07 07:16:38;;;;;;;18.30;13.80;;;;;;;0.70;100.00;98457.83;107489;1273;22548;-70
2023/03/07 07:19:08;;;;;;;21.00;14.70;;;;;;;0.70;100.00;98457.25;108523;1276;22406;-70
2023/03/07 07:21:37;;;;;;;20.80;14.10;;;;;;;0.80;100.00;98462.36;110059;1272;22250;-70
2023/03/07 07:24:05;;;;;;;16.00;12.20;;;;;;;0.90;100.00;98465.71;110371;1271;22276;-69
2023/03/07 07:26:35;;;;;;;15.90;11.80;;;;;;;0.99;100.00;98470.05;110422;1276;22471;-69
2023/03/07 07:29:03;;;;;;;20.00;12.50;;;;;;;1.02;100.00;98471.42;110297;1276;22807;-69
2023/03/07 07:31:31;;;;;;;14.60;10.90;;;;;;;1.12;100.00;98472.75;110256;1276;22229;-70
2023/03/07 07:34:00;;;;;;;16.80;11.40;;;;;;;1.23;100.00;98471.11;110256;1276;22229;-69
2023/03/07 07:36:30;;;;;;;15.80;11.90;;;;;;;1.28;100.00;98472.77;110230;1275;22228;-69
2023/03/07 07:39:05;;;;;;;17.20;11.30;;;;;;;1.30;100.00;98474.41;110275;1253;22328;-69
2023/03/07 07:41:35;;;;;;;15.30;10.80;;;;;;;1.38;100.00;98479.36;110229;1276;22274;-70
2023/03/07 07:44:03;;;;;;;14.50;11.10;;;;;;;1.45;100.00;98478.94;110192;1276;22202;-70
2023/03/07 07:46:39;;;;;;;13.30;9.60;;;;;;;1.47;100.00;98476.79;108926;1276;22511;-69
2023/03/07 07:49:08;;;;;;;13.40;11.00;;;;;;;1.55;100.00;98480.08;107920;1275;22520;-69
2023/03/07 07:51:39;;;;;;;17.70;14.20;;;;;;;1.59;100.00;98478.14;107369;1270;25372;-69
2023/03/07 07:54:08;;;;;;;15.20;11.80;;;;;;;1.59;100.00;98476.33;107322;1276;25356;-70
2023/03/07 07:56:37;;;;;;;15.20;11.20;;;;;;;1.63;100.00;98474.71;107448;1276;25478;-70
2023/03/07 07:59:05;;;;;;;15.80;11.30;;;;;;;1.74;100.00;98475.91;107608;1271;22566;-70
2023/03/07 08:01:33;;;;;;;15.00;11.40;;;;;;;1.86;100.00;98476.63;107514;1275;24384;-69
2023/03/07 08:04:01;;;;;;;14.10;10.60;;;;;;;1.95;100.00;98470.10;107703;1274;22531;-69
2023/03/07 08:06:30;;;;;;;14.10;10.00;;;;;;;2.04;100.00;98472.86;107712;1275;22548;-69
2023/03/07 08:08:59;;;;;;;13.40;10.90;;;;;;;2.19;100.00;98470.92;107731;1276;22638;-69
2023/03/07 08:11:33;;;;;;;15.60;11.10;;;;;;;2.36;100.00;98476.09;107453;1275;22514;-69
2023/03/07 08:14:02;;;;;;;13.00;10.10;;;;;;;2.46;100.00;98474.77;107627;1271;25348;-69
2023/03/07 08:16:31;;;;;;;13.70;10.00;;;;;;;2.58;100.00;98478.34;107915;1276;22513;-69
2023/03/07 08:18:59;;;;;;;14.50;10.50;;;;;;;2.70;100.00;98482.23;107572;1276;22626;-69
2023/03/07 08:21:29;;;;;;;14.10;10.30;;;;;;;2.89;100.00;98480.52;107362;1275;23754;-69
2023/03/07 08:23:57;;;;;;;13.40;10.60;;;;;;;2.95;100.00;98476.35;107452;1276;25376;-69
2023/03/07 08:26:25;;;;;;;13.50;10.30;;;;;;;2.92;100.00;98474.81;107453;1276;23860;-68
2023/03/07 08:28:54;;;;;;;13.30;9.90;;;;;;;2.93;100.00;98477.46;107462;1276;24224;-69
2023/03/07 08:31:23;;;;;;;14.20;10.10;;;;;;;2.90;100.00;98482.90;110352;1276;22878;-69
2023/03/07 08:33:55;;;;;;;13.60;9.80;;;;;;;2.81;100.00;98484.09;110399;1276;22756;-69
2023/03/07 08:36:24;;;;;;;13.90;10.40;;;;;;;2.76;100.00;98484.63;110202;1275;23110;-69
2023/03/07 08:38:58;;;;;;;13.30;10.30;;;;;;;2.73;100.00;98488.83;110382;1275;22201;-69
2023/03/07 08:41:26;;;;;;;15.10;10.50;;;;;;;2.72;100.00;98488.18;110473;1276;22196;-69
2023/03/07 08:43:54;;;;;;;13.70;10.80;;;;;;;2.71;100.00;98490.90;110421;1275;22927;-69
2023/03/07 08:46:23;;;;;;;14.70;11.30;;;;;;;2.67;100.00;98487.26;110171;1276;23116;-69
2023/03/07 08:48:53;;;;;;;17.40;12.00;;;;;;;2.70;100.00;98488.91;110366;1276;22382;-69
2023/03/07 08:51:27;;;;;;;15.90;12.10;;;;;;;2.76;100.00;98488.77;110280;1276;22232;-69
2023/03/07 08:53:57;;;;;;;15.50;11.70;;;;;;;2.86;100.00;98491.89;110240;1276;22955;-70
2023/03/07 08:56:26;;;;;;;16.30;11.90;;;;;;;3.04;100.00;98491.60;110396;1276;22209;-70
2023/03/07 08:58:54;;;;;;;14.50;11.40;;;;;;;3.32;100.00;98495.91;110427;1276;22427;-71
2023/03/07 09:01:23;;;;;;;14.80;11.70;;;;;;;3.49;100.00;98494.61;110395;1276;22983;-70
2023/03/07 09:03:51;;;;;;;15.00;11.10;;;;;;;3.62;100.00;98495.48;110422;1276;22273;-69
2023/03/07 09:06:20;;;;;;;15.00;11.30;;;;;;;3.74;100.00;98502.36;110424;1276;22182;-69
2023/03/07 09:08:49;;;;;;;14.40;10.70;;;;;;;3.84;100.00;98505.83;110400;1276;22277;-69
2023/03/07 09:11:20;;;;;;;14.90;11.40;;;;;;;3.91;100.00;98507.98;110387;1276;22454;-69
2023/03/07 09:13:49;;;;;;;13.00;10.00;;;;;;;4.06;100.00;98508.41;110267;1275;22871;-70
2023/03/07 09:16:21;;;;;;;13.70;10.90;;;;;;;4.22;100.00;98507.70;110313;1268;22216;-70
2023/03/07 09:18:50;;;;;;;13.90;11.20;;;;;;;4.24;100.00;98508.25;110384;1276;22214;-69
2023/03/07 09:21:18;;;;;;;15.80;11.40;;;;;;;4.09;100.00;98517.59;110380;1276;22311;-69
2023/03/07 09:23:47;;;;;;;14.40;11.30;;;;;;;3.81;100.00;98513.77;110370;1276;22328;-69
2023/03/07 09:26:18;;;;;;;13.70;10.80;;;;;;;3.63;100.00;98515.23;110398;1276;22434;-69
2023/03/07 09:28:46;;;;;;;14.20;11.20;;;;;;;3.51;100.00;98511.52;110351;1276;23511;-69
2023/03/07 09:31:15;;;;;;;15.30;11.90;;;;;;;3.46;100.00;98513.00;110392;1276;22866;-69
2023/03/07 09:33:45;;;;;;;11.80;10.00;;;;;;;3.52;100.00;98509.34;110354;1276;22255;-69
2023/03/07 09:36:15;;;;;;;14.00;10.20;;;;;;;3.69;100.00;98505.33;110429;1276;22311;-69
2023/03/07 09:38:43;;;;;;;12.40;10.40;;;;;;;3.85;100.00;98502.22;110387;1276;22228;-69
2023/03/07 09:41:30;;;;;;;12.90;10.50;;;;;;;3.95;100.00;98498.75;110348;1270;23247;-68
2023/03/07 09:44:10;;;;;;;13.80;10.60;;;;;;;4.17;100.00;98493.55;110297;1276;23116;-69
2023/03/07 09:47:01;;;;;;;12.50;10.60;;;;;;;4.48;100.00;98493.29;110224;1270;22995;-68
2023/03/07 09:49:35;;;;;;;13.40;11.30;;;;;;;4.72;100.00;98492.36;110185;1276;22480;-69
2023/03/07 09:52:08;;;;;;;14.20;11.20;;;;;;;5.03;100.00;98495.00;110248;1269;22403;-69
2023/03/07 09:54:40;;;;;;;15.00;12.00;;;;;;;5.20;100.00;98489.44;110036;1275;22212;-69
2023/03/07 09:57:32;;;;;;;14.50;10.80;;;;;;;5.36;100.00;98493.80;110334;1276;22465;-69
2023/03/07 10:00:17;;;;;;;13.70;10.70;;;;;;;5.52;100.00;98484.19;110189;1276;22264;-69
2023/03/07 10:02:53;;;;;;;12.50;11.00;;;;;;;5.52;100.00;98487.22;110145;1276;22874;-69
2023/03/07 10:05:27;;;;;;;12.40;10.50;;;;;;;5.46;100.00;98485.64;110212;1276;22993;-69
2023/03/07 10:08:01;;;;;;;12.10;10.40;;;;;;;5.38;100.00;98474.25;110321;1276;22220;-69
2023/03/07 10:10:38;;;;;;;13.10;10.90;;;;;;;5.24;100.00;98468.41;110335;1276;22260;-69
2023/03/07 10:13:26;;;;;;;13.50;11.20;;;;;;;5.03;100.00;98469.48;110338;1269;22440;-69
2023/03/07 10:16:23;;;;;;;12.30;10.80;;;;;;;4.84;100.00;98458.55;110281;1270;22343;-69
2023/03/07 10:19:01;;;;;;;;;;;;;;;4.73;100.00;98452.86;109950;1276;23124;-69
2023/03/07 10:21:57;;;;;;;17.00;12.00;;;;;;;4.67;100.00;98446.16;109975;1271;22532;-69
2023/03/07 10:24:35;;;;;;;18.60;14.40;;;;;;;4.73;100.00;98441.86;107567;1269;22659;-69
2023/03/07 10:27:07;;;;;;;13.30;11.00;;;;;;;4.81;100.00;98438.15;107534;1270;25334;-68
2023/03/07 10:29:50;;;;;;;15.10;12.50;;;;;;;4.93;100.00;98433.92;107447;1274;23586;-69
2023/03/07 10:32:39;;;;;;;17.00;14.20;;;;;;;5.05;100.00;98437.35;107496;1270;23075;-68
2023/03/07 10:35:12;;;;;;;13.60;11.70;;;;;;;5.14;100.00;98434.66;107525;1276;25799;-68
2023/03/07 10:37:54;;;;;;;13.90;11.20;;;;;;;5.23;100.00;98431.17;107615;1276;25574;-68
2023/03/07 10:40:30;;;;;;;12.70;11.20;;;;;;;5.24;100.00;98424.33;107586;1275;25521;-67
2023/03/07 10:42:59;;;;;;;13.30;11.00;;;;;;;5.16;100.00;98421.92;107526;1276;22879;-67
2023/03/07 10:45:36;;;;;;;13.90;10.80;;;;;;;5.09;100.00;98419.93;107787;1276;25406;-67
2023/03/07 10:48:08;;;;;;;13.60;11.00;;;;;;;5.08;100.00;98412.11;107689;1276;23061;-67
2023/03/07 10:50:42;;;;;;;16.90;10.80;;;;;;;5.07;100.00;98412.22;107583;1270;22640;-67
2023/03/07 10:53:28;;;;;;;14.00;11.80;;;;;;;5.14;100.00;98409.30;107786;1273;22577;-67
2023/03/07 10:56:13;;;;;;;12.80;11.00;;;;;;;5.32;100.00;98406.57;107815;1270;24280;-67
2023/03/07 10:59:08;;;;;;;12.90;11.10;;;;;;;5.41;100.00;98404.25;107553;1275;22613;-67
2023/03/07 11:01:37;;;;;;;14.40;10.80;;;;;;;5.38;100.00;98395.98;107562;1271;23778;-67
2023/03/07 11:04:07;;;;;;;14.10;11.00;;;;;;;5.32;100.00;98394.73;107539;1269;22977;-68
2023/03/07 11:06:38;;;;;;;14.00;11.70;;;;;;;5.35;100.00;98394.21;107677;1276;22559;-67
2023/03/07 11:09:14;;;;;;;14.80;11.30;;;;;;;5.43;100.00;98395.77;107645;1270;22631;-67
2023/03/07 11:12:05;;;;;;;13.80;11.00;;;;;;;5.51;100.00;98395.39;107533;1272;22604;-67
2023/03/07 11:14:48;;;;;;;14.20;10.40;;;;;;;5.54;100.00;98393.92;107642;1276;25281;-67
2023/03/07 11:17:29;;;;;;;14.10;10.40;;;;;;;5.51;100.00;98392.75;107575;1269;22517;-67
2023/03/07 11:19:58;;;;;;;12.70;10.60;;;;;;;5.50;100.00;98393.55;110227;1277;22342;-68
2023/03/07 11:22:27;;;;;;;13.90;11.10;;;;;;;5.44;100.00;98394.05;110307;1276;23075;-68
2023/03/07 11:25:09;;;;;;;16.10;12.40;;;;;;;5.36;100.00;98394.69;110319;1269;22274;-67
2023/03/07 11:27:56;;;;;;;14.40;12.20;;;;;;;5.31;100.00;98397.89;110349;1276;23265;-67
2023/03/07 11:30:51;;;;;;;15.30;12.30;;;;;;;5.29;100.00;98400.80;107444;1276;24479;-67